Time;durP1;ratioP1;P1;durP2;ratioP2;P2;SDS_P1;SDS_P2;PMS_P1;PMS_P2;Temp;Humidity;BMP_temperature;BMP_pressure;BME280_temperature;BME280_humidity;BME280_pressure;Samples;Min_cycle;Max_cycle;Signal;HPM_P1;HPM_P2
2022/07/27 00:00:52;;;;;;;1.15;1.02;;;;;;;16.69;100.00;98662.09;5062254;28;20473;-68
2022/07/27 00:03:17;;;;;;;1.98;1.35;;;;;;;16.73;100.00;98667.88;5060947;28;20060;-69
2022/07/27 00:05:43;;;;;;;4.22;1.70;;;;;;;16.81;100.00;98672.97;5313720;22;20040;-62
2022/07/27 00:08:08;;;;;;;1.77;1.25;;;;;;;16.89;100.00;98669.00;5028324;28;20035;-61
2022/07/27 00:10:35;;;;;;;3.05;1.63;;;;;;;16.96;100.00;98675.16;5040423;28;20391;-62
2022/07/27 00:13:01;;;;;;;3.88;1.75;;;;;;;17.03;100.00;98675.81;5045601;28;20036;-61
2022/07/27 00:15:27;;;;;;;4.13;1.98;;;;;;;17.05;100.00;98676.38;5053996;28;20332;-61
2022/07/27 00:17:52;;;;;;;2.90;1.42;;;;;;;17.02;100.00;98674.16;5042025;28;20040;-61
2022/07/27 00:20:17;;;;;;;2.05;1.50;;;;;;;16.95;100.00;98674.31;5044694;28;20024;-62
2022/07/27 00:22:43;;;;;;;4.85;1.70;;;;;;;17.00;100.00;98671.69;5052101;28;20111;-61
2022/07/27 00:25:08;;;;;;;3.40;1.30;;;;;;;16.95;100.00;98668.00;5049517;28;20464;-62
2022/07/27 00:27:34;;;;;;;1.65;1.25;;;;;;;16.95;100.00;98666.13;5047934;28;20483;-62
2022/07/27 00:29:59;;;;;;;5.63;1.67;;;;;;;16.90;100.00;98659.72;5049952;28;20036;-62
2022/07/27 00:32:25;;;;;;;3.65;1.55;;;;;;;16.85;100.00;98666.78;5051007;28;20017;-62
2022/07/27 00:34:50;;;;;;;2.78;1.52;;;;;;;16.91;100.00;98667.69;5053716;28;20032;-62
2022/07/27 00:37:16;;;;;;;5.25;1.60;;;;;;;17.05;100.00;98673.66;5044816;28;20029;-61
2022/07/27 00:39:42;;;;;;;4.75;1.70;;;;;;;17.01;100.00;98672.50;5049691;28;20130;-61
2022/07/27 00:42:07;;;;;;;2.17;1.52;;;;;;;16.95;100.00;98668.00;5042523;28;20020;-61
2022/07/27 00:44:33;;;;;;;3.20;1.65;;;;;;;16.94;100.00;98661.72;5047585;28;20051;-62
2022/07/27 00:46:58;;;;;;;3.55;1.70;;;;;;;16.90;100.00;98659.72;5037175;28;20032;-62
2022/07/27 00:49:27;;;;;;;4.05;1.55;;;;;;;16.84;100.00;98661.53;5051889;28;20387;-62
2022/07/27 00:51:54;;;;;;;2.03;1.60;;;;;;;16.88;100.00;98668.19;5053703;28;20522;-61
2022/07/27 00:54:20;;;;;;;1.92;1.48;;;;;;;16.79;100.00;98656.84;5053399;28;20466;-61
2022/07/27 00:56:46;;;;;;;2.20;1.45;;;;;;;16.84;100.00;98656.91;5044067;28;20120;-62
2022/07/27 00:59:13;;;;;;;3.42;1.65;;;;;;;16.87;100.00;98663.78;5049356;28;20112;-62
2022/07/27 01:01:38;;;;;;;4.13;2.10;;;;;;;16.86;100.00;98662.97;5054305;28;20025;-62
2022/07/27 01:04:04;;;;;;;3.05;1.90;;;;;;;16.91;100.00;98662.22;5049126;28;20055;-62
2022/07/27 01:06:31;;;;;;;2.97;1.88;;;;;;;16.88;100.00;98660.00;5047676;28;20487;-61
2022/07/27 01:11:42;;;;;;;7.38;1.75;;;;;;;17.07;100.00;98652.34;5056665;28;20035;-62
2022/07/27 01:14:08;;;;;;;2.90;1.88;;;;;;;17.07;99.82;98657.81;5043939;28;20024;-62
2022/07/27 01:16:33;;;;;;;4.43;1.65;;;;;;;17.10;100.00;98654.59;5052685;28;20027;-62
2022/07/27 01:18:59;;;;;;;3.03;1.70;;;;;;;17.11;100.00;98650.81;5047225;28;20044;-61
2022/07/27 01:21:24;;;;;;;3.42;1.70;;;;;;;17.03;100.00;98653.94;5054527;28;20112;-61
2022/07/27 01:23:49;;;;;;;2.80;1.90;;;;;;;16.89;100.00;98655.34;5047783;28;20116;-62
2022/07/27 01:26:15;;;;;;;3.05;1.80;;;;;;;16.74;100.00;98645.81;5052228;28;20017;-61
2022/07/27 01:28:44;;;;;;;4.35;2.45;;;;;;;16.60;100.00;98645.25;5047023;28;20032;-62
2022/07/27 01:31:09;;;;;;;;;;;;;;;16.60;100.00;98650.72;5051524;28;20035;-61
2022/07/27 01:33:36;;;;;;;2.25;1.85;;;;;;;16.51;100.00;98644.03;5054735;28;19998;-61
2022/07/27 01:36:01;;;;;;;2.88;1.90;;;;;;;16.49;100.00;98643.44;5047958;28;20017;-62
2022/07/27 01:38:26;;;;;;;10.05;1.83;;;;;;;16.44;100.00;98641.44;5052712;28;20029;-62
2022/07/27 01:40:53;;;;;;;6.40;2.03;;;;;;;16.37;100.00;98639.94;5046474;28;20024;-62
2022/07/27 01:43:18;;;;;;;4.45;2.22;;;;;;;16.35;100.00;98636.63;5051876;28;20111;-61
2022/07/27 01:45:44;;;;;;;5.38;1.75;;;;;;;16.34;100.00;98635.78;5054297;28;20107;-62
2022/07/27 01:48:10;;;;;;;2.33;1.65;;;;;;;16.26;100.00;98633.44;5054539;28;20081;-62
2022/07/27 01:50:35;;;;;;;5.35;1.63;;;;;;;16.16;100.00;98633.25;5054676;28;20036;-62
2022/07/27 01:53:01;;;;;;;3.53;2.00;;;;;;;15.95;100.00;98621.94;5048204;28;20402;-62
2022/07/27 01:55:26;;;;;;;4.22;2.10;;;;;;;15.81;100.00;98620.56;5067366;28;20025;-62
2022/07/27 01:57:52;;;;;;;3.40;2.10;;;;;;;15.67;100.00;98621.91;5041379;28;20445;-62
2022/07/27 02:00:17;;;;;;;2.75;1.77;;;;;;;15.55;100.00;98628.19;5047397;28;20090;-62
2022/07/27 02:02:43;;;;;;;5.63;2.00;;;;;;;15.50;100.00;98628.06;5050682;28;20417;-62
2022/07/27 02:05:10;;;;;;;5.68;2.15;;;;;;;15.46;100.00;98612.47;5052392;28;20039;-62
2022/07/27 02:07:38;;;;;;;4.25;2.15;;;;;;;15.39;100.00;98614.47;5066874;28;20033;-62
2022/07/27 02:10:04;;;;;;;3.92;2.30;;;;;;;15.29;100.00;98606.91;5047865;28;20103;-62
2022/07/27 02:12:35;;;;;;;2.92;2.00;;;;;;;15.29;100.00;98606.91;5056455;28;20135;-62
2022/07/27 02:15:13;;;;;;;3.42;2.55;;;;;;;15.31;100.00;98612.94;5051034;28;20027;-62
2022/07/27 02:17:39;;;;;;;3.03;1.95;;;;;;;15.28;100.00;98618.88;5051426;28;20037;-62
2022/07/27 02:20:06;;;;;;;3.45;2.38;;;;;;;15.30;100.00;98617.56;5039745;28;20016;-62
2022/07/27 02:22:32;;;;;;;5.47;2.10;;;;;;;15.31;100.00;98619.22;5048149;28;20034;-62
2022/07/27 02:24:58;;;;;;;3.63;2.30;;;;;;;15.65;100.00;98622.13;5056560;28;20033;-61
2022/07/27 02:27:23;;;;;;;4.22;2.35;;;;;;;15.70;100.00;98632.34;5052228;28;20039;-61
2022/07/27 02:29:49;;;;;;;5.63;2.28;;;;;;;15.83;100.00;98618.44;5050201;28;20467;-62
2022/07/27 02:32:15;;;;;;;2.78;2.00;;;;;;;15.90;100.00;98613.69;5049632;28;20222;-61
2022/07/27 02:34:41;;;;;;;2.72;2.03;;;;;;;15.83;100.00;98623.91;5053779;28;20078;-61
2022/07/27 02:37:06;;;;;;;4.78;2.47;;;;;;;15.71;100.00;98620.38;5049910;28;20077;-62
2022/07/27 02:39:32;;;;;;;2.80;2.00;;;;;;;15.59;100.00;98616.78;5047889;28;20029;-62
2022/07/27 02:41:57;;;;;;;3.13;1.80;;;;;;;15.45;100.00;98619.78;5050394;28;20039;-62
2022/07/27 02:44:22;;;;;;;4.07;1.90;;;;;;;15.31;100.00;98624.66;5053188;28;20040;-62
2022/07/27 02:46:48;;;;;;;3.97;2.22;;;;;;;14.98;100.00;98583.56;5041240;28;20029;-62
2022/07/27 02:49:13;;;;;;;5.03;2.38;;;;;;;15.28;100.00;98616.16;5048052;28;20028;-61
2022/07/27 02:51:39;;;;;;;2.20;2.00;;;;;;;15.25;100.00;98605.72;5047891;28;20035;-61
2022/07/27 02:54:04;;;;;;;4.05;2.10;;;;;;;15.22;100.00;98600.72;5045711;28;20029;-62
2022/07/27 02:56:29;;;;;;;5.18;2.53;;;;;;;15.18;100.00;98607.75;5051106;28;20059;-62
2022/07/27 02:58:55;;;;;;;4.80;2.40;;;;;;;15.20;100.00;98601.00;5049699;28;20028;-62
2022/07/27 03:01:22;;;;;;;5.40;2.20;;;;;;;15.24;100.00;98599.44;5040837;28;20484;-62
2022/07/27 03:03:47;;;;;;;4.53;2.35;;;;;;;15.35;100.00;98603.19;5063540;28;20037;-61
2022/07/27 03:06:13;;;;;;;3.72;1.90;;;;;;;15.35;100.00;98603.19;5041466;28;20031;-61
2022/07/27 03:08:39;;;;;;;3.38;2.45;;;;;;;15.19;100.00;98607.50;5051851;28;20051;-62
2022/07/27 03:11:05;;;;;;;3.25;2.08;;;;;;;15.22;100.00;98612.50;5053488;28;20537;-62
2022/07/27 03:13:31;;;;;;;2.10;1.90;;;;;;;15.19;100.00;98610.22;5040123;28;20583;-62
2022/07/27 03:15:57;;;;;;;3.80;2.25;;;;;;;15.25;100.00;98613.91;5065765;28;20039;-63
2022/07/27 03:18:22;;;;;;;3.10;2.42;;;;;;;15.14;100.00;98612.81;5043766;28;20033;-62
2022/07/27 03:20:47;;;;;;;2.63;2.40;;;;;;;15.04;100.00;98620.78;5043007;28;20028;-62
2022/07/27 03:23:13;;;;;;;4.75;2.47;;;;;;;14.90;100.00;98620.16;5053502;28;20032;-62
2022/07/27 03:25:39;;;;;;;5.60;2.58;;;;;;;14.95;100.00;98623.00;5036893;28;20036;-62
2022/07/27 03:28:04;;;;;;;4.50;2.17;;;;;;;15.10;100.00;98631.56;5042666;28;20026;-62
2022/07/27 03:30:31;;;;;;;3.72;2.20;;;;;;;14.99;100.00;98626.94;5045249;28;20464;-62
2022/07/27 03:32:56;;;;;;;3.78;2.40;;;;;;;14.82;100.00;98625.97;5047106;28;20031;-62
2022/07/27 03:35:21;;;;;;;3.00;2.70;;;;;;;14.68;100.00;98639.81;5041760;28;20478;-61
2022/07/27 03:37:47;;;;;;;3.88;2.55;;;;;;;14.61;100.00;98643.69;5047413;28;20114;-61
2022/07/27 03:40:12;;;;;;;5.32;2.78;;;;;;;14.52;100.00;98645.91;5049424;28;20033;-61
2022/07/27 03:42:37;;;;;;;6.07;2.63;;;;;;;14.58;100.00;98650.44;5043895;28;20020;-62
2022/07/27 03:45:04;;;;;;;4.18;2.60;;;;;;;14.71;100.00;98648.56;5046807;28;20031;-62
2022/07/27 03:47:29;;;;;;;5.05;2.50;;;;;;;14.75;100.00;98644.31;5043185;28;20025;-65
2022/07/27 03:49:55;;;;;;;3.47;2.70;;;;;;;14.77;100.00;98645.72;5044026;28;20032;-65
2022/07/27 03:52:20;;;;;;;2.90;2.40;;;;;;;14.79;100.00;98646.31;5043611;28;20033;-65
2022/07/27 03:54:46;;;;;;;7.43;3.03;;;;;;;14.77;100.00;98637.56;5050308;28;20043;-64
2022/07/27 03:57:12;;;;;;;3.28;2.72;;;;;;;14.77;100.00;98647.63;5039728;28;20107;-65
2022/07/27 03:59:37;;;;;;;4.00;2.72;;;;;;;14.78;100.00;98638.41;5039328;28;20028;-65
2022/07/27 04:02:03;;;;;;;4.75;3.03;;;;;;;14.81;100.00;98636.03;5042456;28;20544;-65
2022/07/27 04:04:28;;;;;;;4.55;2.83;;;;;;;14.84;100.00;98640.19;5050877;28;20025;-65
2022/07/27 04:06:54;;;;;;;5.60;2.92;;;;;;;14.94;100.00;98648.63;5048743;28;20388;-65
2022/07/27 04:09:19;;;;;;;3.70;2.42;;;;;;;15.10;100.00;98647.91;5049651;28;20468;-65
2022/07/27 04:11:46;;;;;;;3.42;2.65;;;;;;;15.07;100.00;98648.38;5047990;28;20412;-65
2022/07/27 04:14:11;;;;;;;6.10;2.55;;;;;;;15.10;100.00;98645.19;5049775;28;20032;-65
2022/07/27 04:16:37;;;;;;;6.10;2.65;;;;;;;15.07;100.00;98645.66;5044957;28;20024;-65
2022/07/27 04:19:03;;;;;;;5.43;2.70;;;;;;;15.11;100.00;98646.81;5054294;28;20027;-65
2022/07/27 04:21:28;;;;;;;5.93;2.35;;;;;;;15.17;100.00;98642.34;5043218;28;20039;-65
2022/07/27 04:23:54;;;;;;;2.80;2.20;;;;;;;15.24;100.00;98643.03;5051844;28;20352;-65
2022/07/27 04:26:19;;;;;;;3.45;2.38;;;;;;;15.38;100.00;98650.97;5050219;28;20529;-65
2022/07/27 04:28:45;;;;;;;3.60;2.75;;;;;;;15.41;100.00;98645.88;5049479;28;20242;-66
2022/07/27 04:31:10;;;;;;;4.43;2.25;;;;;;;15.62;100.00;98646.34;5050808;28;20114;-66
2022/07/27 04:33:36;;;;;;;2.92;2.03;;;;;;;15.74;100.00;98652.59;5045586;28;20033;-65
2022/07/27 04:36:01;;;;;;;5.13;2.22;;;;;;;15.79;100.00;98658.19;5041816;28;20038;-65
2022/07/27 04:38:26;;;;;;;2.70;2.42;;;;;;;15.85;100.00;98664.56;5047854;28;20032;-65
2022/07/27 04:40:52;;;;;;;3.08;2.53;;;;;;;15.90;100.00;98670.97;5058307;28;20028;-65
2022/07/27 04:43:17;;;;;;;3.58;2.08;;;;;;;16.01;100.00;98663.81;5037737;28;20044;-64
2022/07/27 04:45:43;;;;;;;7.30;2.47;;;;;;;16.08;100.00;98661.75;5045326;28;20032;-64
2022/07/27 04:48:09;;;;;;;5.75;2.55;;;;;;;16.13;100.00;98667.31;5046112;28;20064;-64
2022/07/27 04:50:52;;;;;;;4.15;2.40;;;;;;;16.24;100.00;98662.06;5050903;28;20472;-64
2022/07/27 04:53:18;;;;;;;3.95;2.53;;;;;;;16.27;100.00;98662.44;5049749;28;20028;-64
2022/07/27 04:55:45;;;;;;;6.97;2.75;;;;;;;16.17;100.00;98667.69;5048968;28;20035;-64
2022/07/27 04:58:11;;;;;;;3.58;2.35;;;;;;;16.23;100.00;98674.91;5048084;28;20095;-64
2022/07/27 05:00:37;;;;;;;4.03;2.33;;;;;;;16.30;100.00;98677.50;5048050;28;20027;-64
2022/07/27 05:03:03;;;;;;;7.88;2.58;;;;;;;16.43;100.00;98683.47;5041540;28;20029;-64
2022/07/27 05:05:29;;;;;;;6.15;2.45;;;;;;;16.57;100.00;98685.91;5052918;28;20024;-65
2022/07/27 05:07:55;;;;;;;5.18;2.53;;;;;;;16.70;100.00;98690.25;5048557;28;20423;-65
2022/07/27 05:10:20;;;;;;;5.15;2.50;;;;;;;16.83;100.00;98688.03;5042527;28;20062;-64
2022/07/27 05:12:48;;;;;;;5.35;2.70;;;;;;;16.95;100.00;98695.34;5048432;28;20464;-65
2022/07/27 05:15:15;;;;;;;3.10;2.08;;;;;;;17.02;100.00;98698.75;5063168;28;20070;-64
2022/07/27 05:17:40;;;;;;;4.70;2.25;;;;;;;17.09;100.00;98697.50;5047312;28;20063;-65
2022/07/27 05:20:07;;;;;;;4.40;2.60;;;;;;;17.17;100.00;98704.47;5046601;28;20032;-65
2022/07/27 05:22:32;;;;;;;3.30;2.40;;;;;;;17.28;100.00;98708.19;5050477;28;20383;-64
2022/07/27 05:24:58;;;;;;;4.38;2.67;;;;;;;17.37;100.00;98706.72;5044349;28;20017;-65
2022/07/27 05:27:23;;;;;;;4.10;2.53;;;;;;;17.47;100.00;98708.75;5047009;28;20035;-65
2022/07/27 05:29:49;;;;;;;6.35;2.85;;;;;;;17.61;100.00;98707.34;5046955;28;20036;-65
2022/07/27 05:32:14;;;;;;;3.85;2.63;;;;;;;17.78;100.00;98709.19;5059689;28;20037;-65
2022/07/27 05:34:40;;;;;;;5.40;2.88;;;;;;;18.04;100.00;98703.00;5043898;28;20033;-65
2022/07/27 05:37:06;;;;;;;6.15;2.75;;;;;;;18.21;100.00;98707.59;5040823;28;20476;-65
2022/07/27 05:39:32;;;;;;;4.47;2.60;;;;;;;18.39;96.56;98710.84;5059006;28;20115;-65
2022/07/27 05:41:57;;;;;;;7.28;2.67;;;;;;;18.49;95.83;98707.38;5042864;28;20498;-65
2022/07/27 05:44:23;;;;;;;4.25;3.15;;;;;;;18.58;95.16;98703.09;5040243;28;20771;-65
2022/07/27 05:46:48;;;;;;;5.25;2.65;;;;;;;18.67;93.13;98708.94;5049658;28;20427;-64
2022/07/27 05:49:13;;;;;;;3.90;2.40;;;;;;;18.78;95.35;98701.66;5043260;28;20032;-64
2022/07/27 05:51:39;;;;;;;7.15;2.70;;;;;;;18.89;92.35;98702.59;5052134;28;20020;-64
2022/07/27 05:54:04;;;;;;;7.07;2.47;;;;;;;19.05;88.69;98704.41;5044426;28;20020;-64
2022/07/27 05:56:29;;;;;;;5.32;2.60;;;;;;;19.20;85.10;98704.53;5050665;28;20387;-64
2022/07/27 05:58:55;;;;;;;5.72;2.20;;;;;;;19.20;83.84;98709.16;5040208;28;20124;-64
2022/07/27 06:01:21;;;;;;;4.68;2.30;;;;;;;19.29;84.26;98729.56;5065144;28;20058;-64
2022/07/27 06:03:46;;;;;;;4.85;2.67;;;;;;;19.32;82.27;98723.53;5039979;28;21002;-66
2022/07/27 06:08:55;;;;;;;5.97;2.33;;;;;;;19.40;81.68;98722.22;5066239;28;20032;-65
2022/07/27 06:11:21;;;;;;;3.95;2.22;;;;;;;19.49;81.17;98726.13;5065317;28;20029;-65
2022/07/27 06:13:46;;;;;;;5.55;2.50;;;;;;;19.54;80.96;98730.81;5048964;28;20028;-65
2022/07/27 06:16:12;;;;;;;4.53;2.10;;;;;;;19.72;78.94;98738.66;5049957;28;20472;-65
2022/07/27 06:18:38;;;;;;;5.05;2.13;;;;;;;19.92;79.36;98730.56;5053033;28;20368;-64
2022/07/27 06:21:03;;;;;;;3.60;2.22;;;;;;;20.04;76.60;98735.00;5051048;28;20031;-65
2022/07/27 06:23:29;;;;;;;2.58;1.85;;;;;;;20.12;76.88;98723.50;5052343;28;20032;-65
2022/07/27 06:25:56;;;;;;;2.80;2.20;;;;;;;20.23;74.93;98733.47;5056754;28;20054;-65
2022/07/27 06:28:24;;;;;;;3.42;2.05;;;;;;;20.42;74.67;98727.47;5054380;28;20025;-64
2022/07/27 06:30:52;;;;;;;5.47;2.45;;;;;;;20.35;74.11;98725.78;5050358;28;20032;-65
2022/07/27 06:33:21;;;;;;;4.00;2.10;;;;;;;20.46;73.16;98726.69;5044894;28;20091;-65
2022/07/27 06:35:47;;;;;;;3.70;1.85;;;;;;;20.49;71.86;98737.13;5064249;28;20024;-65
2022/07/27 06:38:12;;;;;;;6.22;2.00;;;;;;;20.54;70.54;98733.59;5040927;28;20483;-65
2022/07/27 06:40:38;;;;;;;4.00;1.92;;;;;;;20.52;71.06;98735.75;5064604;28;20034;-65
2022/07/27 06:43:04;;;;;;;4.55;1.90;;;;;;;20.61;71.37;98728.66;5051880;28;20924;-65
2022/07/27 06:45:29;;;;;;;2.42;1.85;;;;;;;20.67;73.31;98722.09;5045929;28;20431;-65
2022/07/27 06:47:55;;;;;;;3.15;2.08;;;;;;;20.89;70.75;98723.78;5050106;28;20032;-65
2022/07/27 06:50:21;;;;;;;6.53;2.00;;;;;;;20.95;70.91;98728.19;5053038;28;20024;-64
2022/07/27 06:52:47;;;;;;;2.92;1.98;;;;;;;21.08;69.95;98722.13;5066294;28;20060;-64
2022/07/27 06:55:12;;;;;;;2.00;1.67;;;;;;;21.30;69.52;98718.28;5062634;28;20082;-64
2022/07/27 06:57:38;;;;;;;3.08;2.10;;;;;;;21.33;68.16;98729.59;5045047;28;20032;-64
2022/07/27 07:00:05;;;;;;;3.80;2.03;;;;;;;21.49;66.83;98727.69;5040770;28;20098;-64
2022/07/27 07:02:31;;;;;;;4.80;2.08;;;;;;;21.61;65.62;98728.22;5047104;28;20033;-64
2022/07/27 07:04:57;;;;;;;2.83;2.10;;;;;;;21.89;65.54;98724.03;5040262;28;20020;-64
2022/07/27 07:07:23;;;;;;;2.63;1.85;;;;;;;21.93;64.79;98724.31;5041800;28;20033;-64
2022/07/27 07:09:48;;;;;;;5.53;1.88;;;;;;;21.84;64.98;98724.03;5041476;28;20032;-64
2022/07/27 07:12:14;;;;;;;4.47;2.03;;;;;;;22.22;64.33;98724.50;5045797;28;20021;-64
2022/07/27 07:14:39;;;;;;;3.72;1.90;;;;;;;22.33;63.14;98725.28;5047105;28;20048;-64
2022/07/27 07:17:05;;;;;;;2.70;1.70;;;;;;;22.15;64.34;98734.97;5041493;28;20590;-64
2022/07/27 07:19:30;;;;;;;2.72;1.75;;;;;;;22.13;64.04;98726.16;5039530;28;20481;-64
2022/07/27 07:21:55;;;;;;;2.13;1.60;;;;;;;22.43;62.79;98724.44;5044634;28;20039;-64
2022/07/27 07:24:21;;;;;;;4.38;1.65;;;;;;;22.47;61.83;98726.31;5052618;28;20031;-64
2022/07/27 07:26:46;;;;;;;3.58;1.90;;;;;;;22.71;61.63;98722.88;5042470;28;20388;-64
2022/07/27 07:29:11;;;;;;;4.13;1.88;;;;;;;22.85;61.07;98734.13;5055194;28;20024;-65
2022/07/27 07:31:37;;;;;;;2.55;1.60;;;;;;;23.11;59.57;98740.31;5054635;28;20113;-65
2022/07/27 07:34:02;;;;;;;3.42;2.35;;;;;;;23.47;58.21;98726.22;5052532;28;20033;-64
2022/07/27 07:36:28;;;;;;;4.07;1.73;;;;;;;23.80;57.99;98728.13;5051647;28;20489;-65
2022/07/27 07:38:54;;;;;;;8.15;1.95;;;;;;;24.03;56.83;98728.47;5039885;28;20081;-64
2022/07/27 07:41:23;;;;;;;5.82;1.80;;;;;;;24.48;55.43;98723.50;5052024;28;20024;-65
2022/07/27 07:43:49;;;;;;;6.18;2.05;;;;;;;24.55;55.46;98728.66;5049805;28;20549;-64
2022/07/27 07:46:14;;;;;;;5.38;2.20;;;;;;;24.40;55.85;98715.84;5051503;28;20021;-65
2022/07/27 07:48:42;;;;;;;2.33;1.40;;;;;;;25.06;53.93;98723.22;5044270;28;20130;-64
2022/07/27 07:51:08;;;;;;;3.75;1.83;;;;;;;25.17;52.85;98717.56;5051717;28;20131;-64
2022/07/27 07:53:33;;;;;;;3.90;1.65;;;;;;;25.62;51.97;98712.34;5060881;28;20040;-64
2022/07/27 07:55:59;;;;;;;3.05;1.70;;;;;;;25.64;51.08;98718.41;5054617;28;20035;-65
2022/07/27 07:58:25;;;;;;;3.25;1.70;;;;;;;25.72;51.60;98723.25;5048264;28;20557;-65
2022/07/27 08:00:51;;;;;;;3.45;1.50;;;;;;;26.54;49.57;98730.84;5044479;28;20162;-65
2022/07/27 08:03:16;;;;;;;2.67;1.60;;;;;;;26.38;49.15;98721.16;5045706;28;20115;-65
2022/07/27 08:05:43;;;;;;;3.28;1.50;;;;;;;26.73;48.85;98725.16;5043901;28;20399;-65
2022/07/27 08:08:08;;;;;;;4.65;1.70;;;;;;;26.20;49.51;98717.38;5037405;28;20028;-65
2022/07/27 08:10:34;;;;;;;2.40;1.40;;;;;;;25.97;48.72;98722.81;5046254;28;20043;-65
2022/07/27 08:12:59;;;;;;;3.10;1.77;;;;;;;25.90;49.27;98722.38;5048522;28;20516;-65
2022/07/27 08:15:26;;;;;;;6.20;1.60;;;;;;;25.55;50.49;98724.66;5048752;28;20402;-65
2022/07/27 08:17:52;;;;;;;2.88;1.52;;;;;;;26.23;49.48;98727.84;5042554;28;20120;-65
2022/07/27 08:20:17;;;;;;;4.95;1.70;;;;;;;26.68;47.56;98725.28;5045009;28;20048;-65
2022/07/27 08:22:43;;;;;;;4.40;1.90;;;;;;;26.71;48.05;98724.63;5063057;28;20537;-65
2022/07/27 08:25:10;;;;;;;3.15;1.70;;;;;;;26.29;48.99;98732.16;5049596;28;20029;-65
2022/07/27 08:27:36;;;;;;;5.18;1.67;;;;;;;27.06;46.70;98722.16;5055635;28;20024;-65
2022/07/27 08:30:04;;;;;;;3.65;1.83;;;;;;;26.94;47.10;98725.50;5042269;28;20021;-65
2022/07/27 08:32:29;;;;;;;2.42;1.40;;;;;;;27.10;46.99;98725.97;5047936;28;20036;-65
2022/07/27 08:34:55;;;;;;;2.65;1.50;;;;;;;26.72;47.81;98728.22;5046936;28;20403;-65
2022/07/27 08:37:21;;;;;;;5.32;1.40;;;;;;;27.02;47.67;98738.66;5045776;28;20033;-65
2022/07/27 08:39:46;;;;;;;2.45;1.58;;;;;;;27.45;46.47;98731.81;5051543;28;20036;-65
2022/07/27 08:42:11;;;;;;;2.22;1.45;;;;;;;26.79;47.40;98740.56;5051928;28;20121;-65
2022/07/27 08:44:41;;;;;;;4.70;1.48;;;;;;;26.76;48.30;98737.59;5047543;28;20031;-66
2022/07/27 08:47:12;;;;;;;4.40;1.45;;;;;;;26.90;47.83;98741.13;5047095;28;20487;-66
2022/07/27 08:49:40;;;;;;;2.78;1.60;;;;;;;26.60;48.08;98742.66;5057921;28;20028;-66
2022/07/27 08:52:07;;;;;;;4.22;1.55;;;;;;;26.63;47.97;98742.84;5058075;28;20025;-66
2022/07/27 08:54:33;;;;;;;7.63;1.70;;;;;;;26.59;48.21;98744.63;5046939;28;20476;-66
2022/07/27 08:56:58;;;;;;;2.78;1.63;;;;;;;26.81;48.04;98741.06;5046549;28;20024;-66
2022/07/27 08:59:24;;;;;;;3.75;1.60;;;;;;;27.28;46.87;98729.75;5048335;28;20522;-66
2022/07/27 09:01:49;;;;;;;3.42;1.35;;;;;;;30.82;40.87;98728.66;5053291;28;20098;-67
2022/07/27 09:04:14;;;;;;;3.50;1.58;;;;;;;33.57;36.40;98723.13;5054344;28;20027;-66
2022/07/27 09:06:42;;;;;;;3.30;1.30;;;;;;;35.33;32.95;98721.78;5060493;28;20017;-66
2022/07/27 09:09:09;;;;;;;3.85;1.10;;;;;;;36.81;30.51;98724.03;5052840;28;20498;-66
2022/07/27 09:11:36;;;;;;;3.92;1.20;;;;;;;36.42;30.16;98727.06;5048930;28;20024;-66
2022/07/27 09:14:04;;;;;;;1.30;0.98;;;;;;;36.39;29.71;98719.34;5051191;28;20028;-66
2022/07/27 09:16:30;;;;;;;1.55;0.93;;;;;;;36.77;29.86;98717.53;5053580;28;20028;-66
2022/07/27 09:19:02;;;;;;;2.05;1.20;;;;;;;35.34;31.28;98724.25;5053890;28;20039;-66
2022/07/27 09:21:27;;;;;;;2.20;1.20;;;;;;;36.28;30.39;98718.34;5054014;28;20063;-68
2022/07/27 09:23:55;;;;;;;2.08;1.10;;;;;;;35.77;31.00;98721.47;5053596;28;20029;-68
2022/07/27 09:26:29;;;;;;;2.92;0.95;;;;;;;37.16;29.82;98713.66;5052930;28;20032;-68
2022/07/27 09:28:57;;;;;;;1.75;0.88;;;;;;;37.67;28.11;98722.31;5054463;28;20123;-68
2022/07/27 09:31:24;;;;;;;2.45;0.98;;;;;;;36.43;29.10;98714.56;5056280;28;20391;-69
2022/07/27 09:34:00;;;;;;;2.67;1.20;;;;;;;33.93;32.67;98704.44;5052204;28;20391;-69
2022/07/27 09:36:28;;;;;;;3.58;0.95;;;;;;;34.77;31.09;98708.09;5053716;28;20247;-69
2022/07/27 09:38:57;;;;;;;4.67;1.00;;;;;;;34.13;32.14;98707.38;5054045;28;20518;-68
2022/07/27 09:41:23;;;;;;;2.58;1.20;;;;;;;37.14;29.26;98699.91;5050228;28;20285;-68
2022/07/27 09:43:51;;;;;;;3.22;1.10;;;;;;;37.57;27.54;98693.97;5043818;28;20025;-68
2022/07/27 09:46:32;;;;;;;2.30;1.13;;;;;;;35.91;29.55;98706.84;5040924;28;22885;-68
2022/07/27 09:48:58;;;;;;;2.40;1.10;;;;;;;33.35;32.89;98707.69;5049328;28;20032;-68
2022/07/27 09:51:24;;;;;;;3.88;1.10;;;;;;;31.52;35.58;98706.56;5054041;28;20028;-68
2022/07/27 09:53:51;;;;;;;2.70;1.30;;;;;;;29.59;38.22;98707.97;5052290;28;20040;-67
2022/07/27 09:56:16;;;;;;;1.65;1.15;;;;;;;29.51;39.04;98705.22;5047023;28;20029;-67
2022/07/27 09:58:45;;;;;;;4.82;1.20;;;;;;;32.35;33.99;98698.16;5055714;28;20392;-67
2022/07/27 10:01:14;;;;;;;2.17;1.27;;;;;;;34.35;31.00;98703.06;5047376;28;20028;-67
2022/07/27 10:03:41;;;;;;;1.95;1.30;;;;;;;35.50;28.65;98710.09;5055511;28;20364;-67
2022/07/27 10:06:08;;;;;;;2.90;1.25;;;;;;;35.81;28.70;98707.44;5056878;28;20432;-68
2022/07/27 10:08:38;;;;;;;1.70;1.05;;;;;;;35.81;29.37;98708.25;5054714;28;20028;-68
2022/07/27 10:11:05;;;;;;;1.33;0.88;;;;;;;35.36;29.33;98711.78;5047078;28;20031;-68
2022/07/27 10:13:30;;;;;;;2.10;1.08;;;;;;;36.92;28.40;98706.44;5049727;28;20020;-68
2022/07/27 10:15:56;;;;;;;1.75;0.98;;;;;;;37.15;27.93;98707.16;5057321;28;20036;-68
2022/07/27 10:18:34;;;;;;;2.22;0.95;;;;;;;35.24;30.13;98716.41;5043599;28;20040;-68
2022/07/27 10:21:07;;;;;;;2.15;0.98;;;;;;;33.83;31.75;98717.03;5046458;28;20025;-68
2022/07/27 10:23:36;;;;;;;1.02;0.80;;;;;;;33.62;31.58;98710.84;5048518;28;20036;-68
2022/07/27 10:26:19;;;;;;;4.03;0.93;;;;;;;35.14;29.40;98714.19;5041091;28;20024;-68
2022/07/27 10:29:04;;;;;;;1.05;0.80;;;;;;;35.75;28.98;98713.38;5048027;28;20044;-68
2022/07/27 10:31:37;;;;;;;2.40;0.93;;;;;;;36.55;27.58;98707.13;5035607;28;20105;-68
2022/07/27 10:34:08;;;;;;;1.42;0.90;;;;;;;35.77;28.83;98701.78;5041625;28;20480;-68
2022/07/27 10:36:33;;;;;;;1.88;1.00;;;;;;;33.48;31.07;98696.38;5047083;28;20032;-67
2022/07/27 10:39:05;;;;;;;3.78;1.13;;;;;;;30.82;35.06;98713.88;5050180;28;20082;-68
2022/07/27 10:41:33;;;;;;;1.77;0.95;;;;;;;30.13;35.79;98708.31;5062676;28;20043;-68
2022/07/27 10:44:16;;;;;;;1.53;1.10;;;;;;;29.53;36.94;98711.25;5048308;28;20043;-68
2022/07/27 10:47:02;;;;;;;5.20;0.95;;;;;;;32.97;32.05;98713.72;5044820;28;20275;-68
2022/07/27 10:49:31;;;;;;;4.40;0.95;;;;;;;35.33;28.89;98713.34;5046528;28;20063;-68
2022/07/27 10:51:58;;;;;;;4.82;1.00;;;;;;;37.26;26.53;98704.50;5048988;28;20025;-68
2022/07/27 10:54:26;;;;;;;1.38;0.77;;;;;;;38.10;25.24;98708.66;5052049;28;20028;-68
2022/07/27 10:56:57;;;;;;;0.90;0.70;;;;;;;38.16;25.39;98703.47;5041455;28;20155;-68
2022/07/27 10:59:38;;;;;;;1.38;0.77;;;;;;;36.96;25.87;98701.66;5042489;28;20028;-69
2022/07/27 11:02:10;;;;;;;2.08;0.90;;;;;;;34.17;29.51;98697.06;5043874;28;20035;-68
2022/07/27 11:05:03;;;;;;;1.88;0.93;;;;;;;32.71;30.97;98711.34;5037816;28;20081;-68
2022/07/27 11:07:28;;;;;;;2.28;0.88;;;;;;;31.23;32.54;98704.63;5043986;28;20029;-69
2022/07/27 11:09:54;;;;;;;1.60;0.80;;;;;;;30.84;34.70;98706.81;5045393;28;20408;-68
2022/07/27 11:12:20;;;;;;;2.85;0.85;;;;;;;30.24;35.49;98696.81;5036044;28;20028;-68
2022/07/27 11:14:55;;;;;;;2.42;0.90;;;;;;;29.59;36.79;98696.81;5052079;28;20051;-68
2022/07/27 11:17:26;;;;;;;1.40;0.70;;;;;;;29.33;36.89;98693.28;5049369;28;20187;-68
2022/07/27 11:19:56;;;;;;;1.33;0.88;;;;;;;28.83;38.03;98692.59;5053264;28;20040;-66
2022/07/27 11:22:32;;;;;;;0.93;0.80;;;;;;;28.46;38.71;98682.91;5045499;28;20032;-65
2022/07/27 11:24:58;;;;;;;2.15;1.00;;;;;;;28.81;37.96;98694.06;5042434;28;20033;-65
2022/07/27 11:27:24;;;;;;;2.75;0.80;;;;;;;29.34;36.49;98692.94;5044966;28;20468;-65
2022/07/27 11:29:50;;;;;;;2.15;0.85;;;;;;;28.84;36.84;98687.84;5048205;28;20124;-65
2022/07/27 11:32:19;;;;;;;3.22;0.77;;;;;;;31.72;34.05;98685.25;5048385;28;20064;-65